createdAt,value
2022-10-16T00:01:44.347Z,77.00
2022-10-16T00:04:11.708Z,77.00
2022-10-16T00:06:41.520Z,77.00
2022-10-16T00:09:11.331Z,76.90
2022-10-16T00:11:41.037Z,76.80
2022-10-16T00:14:12.038Z,76.60
2022-10-16T00:16:39.855Z,76.60
2022-10-16T00:19:07.272Z,76.50
2022-10-16T00:21:35.202Z,76.30
2022-10-16T00:24:05.969Z,76.30
2022-10-16T00:26:37.843Z,76.30
2022-10-16T00:29:05.919Z,76.30
2022-10-16T00:31:36.294Z,76.20
2022-10-16T00:34:03.982Z,76.10
2022-10-16T00:36:31.829Z,76.70
2022-10-16T00:41:36.236Z,76.20
2022-10-16T00:44:24.902Z,76.00
2022-10-16T00:46:52.644Z,76.00
2022-10-16T00:49:24.650Z,76.60
2022-10-16T00:51:54.980Z,76.10
2022-10-16T00:54:25.724Z,76.10
2022-10-16T00:56:54.691Z,75.90
2022-10-16T00:59:29.751Z,76.10
2022-10-16T01:01:58.486Z,75.90
2022-10-16T01:04:27.740Z,75.90
2022-10-16T01:07:02.587Z,76.00
2022-10-16T01:09:45.567Z,76.00
2022-10-16T01:12:20.755Z,76.00
2022-10-16T01:15:10.162Z,75.80
2022-10-16T01:17:48.871Z,75.80
2022-10-16T01:20:23.611Z,75.90
2022-10-16T01:22:58.487Z,75.90
2022-10-16T01:25:59.784Z,75.80
2022-10-16T01:28:35.391Z,75.90
2022-10-16T01:31:03.676Z,75.80
2022-10-16T01:33:47.642Z,75.90
2022-10-16T01:36:19.581Z,75.90
2022-10-16T01:38:50.814Z,75.90
2022-10-16T01:41:25.929Z,76.00
2022-10-16T01:44:33.715Z,75.80
2022-10-16T01:47:01.823Z,75.60
2022-10-16T01:49:33.376Z,75.70
2022-10-16T01:52:03.054Z,75.70
2022-10-16T01:54:33.836Z,76.10
2022-10-16T01:57:02.551Z,75.60
2022-10-16T01:59:34.185Z,75.70
2022-10-16T02:02:02.272Z,75.80
2022-10-16T02:04:36.699Z,76.10
2022-10-16T02:07:04.393Z,75.80
2022-10-16T02:09:34.599Z,75.70
2022-10-16T02:12:09.286Z,75.90
2022-10-16T02:14:40.288Z,75.90
2022-10-16T02:17:19.023Z,76.00
2022-10-16T02:19:48.818Z,76.00
2022-10-16T02:22:24.067Z,76.10
2022-10-16T02:25:29.207Z,76.20
2022-10-16T02:27:59.361Z,76.30
2022-10-16T02:30:30.644Z,76.20
2022-10-16T02:33:01.437Z,76.10
2022-10-16T02:35:29.472Z,76.20
2022-10-16T02:37:58.268Z,76.10
2022-10-16T02:40:27.241Z,76.10
2022-10-16T02:42:58.617Z,76.20
2022-10-16T02:45:28.392Z,76.10
2022-10-16T02:47:58.060Z,76.30
2022-10-16T02:50:26.155Z,76.20
2022-10-16T02:52:53.542Z,76.20
2022-10-16T02:55:23.256Z,76.40
2022-10-16T02:57:50.506Z,76.40
2022-10-16T03:00:18.829Z,76.50
2022-10-16T03:02:48.473Z,76.60
2022-10-16T03:05:16.302Z,76.60
2022-10-16T03:07:43.635Z,76.50
2022-10-16T03:10:10.893Z,76.50
2022-10-16T03:12:38.251Z,76.40
2022-10-16T03:15:06.145Z,76.40
2022-10-16T03:17:33.996Z,76.50
2022-10-16T03:20:01.231Z,76.50
2022-10-16T03:22:30.970Z,76.70
2022-10-16T03:25:00.579Z,76.80
2022-10-16T03:27:30.382Z,76.60
2022-10-16T03:29:57.657Z,76.60
2022-10-16T03:32:26.273Z,76.70
2022-10-16T03:34:58.281Z,76.70
2022-10-16T03:37:26.103Z,76.80
2022-10-16T03:39:54.062Z,76.60
2022-10-16T03:42:23.886Z,76.70
2022-10-16T03:44:51.164Z,76.50
2022-10-16T03:47:22.849Z,76.50
2022-10-16T03:49:51.026Z,76.50
2022-10-16T03:52:20.799Z,76.50
2022-10-16T03:54:48.146Z,76.30
2022-10-16T03:57:18.263Z,76.30
2022-10-16T03:59:45.744Z,76.30
2022-10-16T04:02:13.168Z,76.30
2022-10-16T04:04:42.863Z,76.20
2022-10-16T04:07:10.211Z,76.20
2022-10-16T04:09:37.707Z,76.20
2022-10-16T04:12:07.349Z,76.30
2022-10-16T04:14:35.145Z,76.20
2022-10-16T04:17:02.421Z,76.30
2022-10-16T04:19:32.041Z,76.40
2022-10-16T04:21:59.317Z,76.30
2022-10-16T04:24:29.034Z,76.30
2022-10-16T04:26:56.321Z,76.30
2022-10-16T04:29:23.580Z,76.30
2022-10-16T04:31:53.119Z,76.40
2022-10-16T04:34:20.354Z,76.40
2022-10-16T04:36:50.766Z,76.50
2022-10-16T04:39:18.091Z,76.30
2022-10-16T04:41:45.380Z,76.30
2022-10-16T04:44:12.646Z,76.20
2022-10-16T04:46:39.918Z,76.00
2022-10-16T04:49:07.205Z,75.90
2022-10-16T04:51:34.578Z,76.00
2022-10-16T04:54:01.805Z,75.90
2022-10-16T04:56:31.888Z,75.90
2022-10-16T04:58:59.289Z,76.00
2022-10-16T05:01:26.605Z,76.00
2022-10-16T05:04:03.322Z,76.00
2022-10-16T05:06:33.259Z,76.00
2022-10-16T05:09:02.983Z,76.60
2022-10-16T05:11:30.261Z,75.90
2022-10-16T05:14:00.327Z,76.00
2022-10-16T05:16:27.720Z,75.80
2022-10-16T05:19:00.033Z,75.80
2022-10-16T05:21:39.716Z,75.70
2022-10-16T05:24:10.253Z,75.90
2022-10-16T05:26:37.533Z,75.80
2022-10-16T05:29:09.180Z,75.90
2022-10-16T05:31:36.670Z,75.90
2022-10-16T05:34:06.368Z,76.10
2022-10-16T05:36:33.689Z,75.50
2022-10-16T05:39:00.923Z,75.60
2022-10-16T05:41:28.256Z,75.50
2022-10-16T05:43:55.631Z,75.60
2022-10-16T05:46:22.939Z,75.50
2022-10-16T05:48:54.231Z,75.60
2022-10-16T05:51:21.575Z,75.80
2022-10-16T05:53:48.849Z,75.80
2022-10-16T05:56:16.749Z,75.90
2022-10-16T05:58:45.557Z,76.00
2022-10-16T06:01:18.233Z,76.00
2022-10-16T06:03:46.107Z,76.10
2022-10-16T06:06:24.106Z,76.00
2022-10-16T06:08:58.852Z,76.40
2022-10-16T06:11:29.093Z,76.30
2022-10-16T06:14:02.748Z,76.40
2022-10-16T06:16:30.371Z,76.50
2022-10-16T06:18:57.715Z,76.60
2022-10-16T06:21:26.897Z,77.10
2022-10-16T06:23:57.172Z,76.50
2022-10-16T06:26:29.237Z,76.60
2022-10-16T06:28:57.674Z,76.50
2022-10-16T06:31:28.620Z,76.50
2022-10-16T06:33:57.133Z,76.20
2022-10-16T06:36:25.684Z,76.30
2022-10-16T06:38:55.567Z,76.30
2022-10-16T06:41:24.064Z,76.40
2022-10-16T06:43:53.234Z,76.50
2022-10-16T06:46:23.943Z,76.40
2022-10-16T06:48:51.468Z,76.30
2022-10-16T06:51:23.409Z,76.40
2022-10-16T06:54:04.001Z,76.30
2022-10-16T06:56:34.709Z,76.40
2022-10-16T06:59:02.751Z,76.50
2022-10-16T07:01:30.622Z,76.50
2022-10-16T07:03:58.338Z,76.30
2022-10-16T07:06:27.655Z,76.50
2022-10-16T07:08:55.109Z,76.50
2022-10-16T07:11:24.605Z,76.50
2022-10-16T07:13:55.065Z,76.50
2022-10-16T07:16:28.769Z,76.90
2022-10-16T07:19:01.024Z,77.00
2022-10-16T07:21:36.886Z,77.00
2022-10-16T07:24:06.463Z,77.20
2022-10-16T07:26:36.033Z,77.00
2022-10-16T07:29:04.656Z,76.50
2022-10-16T07:31:34.553Z,76.60
2022-10-16T07:34:02.102Z,76.70
2022-10-16T07:36:31.701Z,76.90
2022-10-16T07:39:01.422Z,77.10
2022-10-16T07:41:33.836Z,77.00
2022-10-16T07:44:01.619Z,77.20
2022-10-16T07:46:29.648Z,77.20
2022-10-16T07:48:56.923Z,77.20
2022-10-16T07:51:25.925Z,77.40
2022-10-16T07:53:55.866Z,77.10
2022-10-16T07:56:23.820Z,77.10
2022-10-16T07:58:54.297Z,77.10
2022-10-16T08:01:26.657Z,77.00
2022-10-16T08:03:56.689Z,77.20
2022-10-16T08:06:27.665Z,77.50
2022-10-16T08:09:00.966Z,77.60
2022-10-16T08:11:30.741Z,77.60
2022-10-16T08:14:00.384Z,77.40
2022-10-16T08:16:27.609Z,77.40
2022-10-16T08:18:57.266Z,77.30
2022-10-16T08:21:24.918Z,77.40
2022-10-16T08:23:58.064Z,77.50
2022-10-16T08:26:27.333Z,77.60
2022-10-16T08:28:55.266Z,77.30
2022-10-16T08:31:23.336Z,77.40
2022-10-16T08:33:54.228Z,77.50
2022-10-16T08:36:21.761Z,77.60
2022-10-16T08:38:50.907Z,77.40
2022-10-16T08:41:41.635Z,77.30
2022-10-16T08:44:57.226Z,76.70
2022-10-16T08:47:36.839Z,76.40
2022-10-16T08:50:12.540Z,76.50
2022-10-16T08:52:42.472Z,76.40
2022-10-16T08:55:33.424Z,76.60
2022-10-16T08:58:01.626Z,76.30
2022-10-16T09:00:29.684Z,76.70
2022-10-16T09:03:18.913Z,77.10
2022-10-16T09:06:06.393Z,77.00
2022-10-16T09:08:42.053Z,77.00
2022-10-16T09:11:40.677Z,77.60
2022-10-16T09:14:37.478Z,77.30
2022-10-16T09:17:16.101Z,77.40
2022-10-16T09:19:55.796Z,77.70
2022-10-16T09:22:30.124Z,78.20
2022-10-16T09:25:11.079Z,78.70
2022-10-16T09:27:41.105Z,78.80
2022-10-16T09:30:20.668Z,78.30
2022-10-16T09:32:52.734Z,78.10
2022-10-16T09:35:27.667Z,77.90
2022-10-16T09:37:55.996Z,77.90
2022-10-16T09:40:32.645Z,77.80
2022-10-16T09:43:35.161Z,77.90
2022-10-16T09:46:06.093Z,77.50
2022-10-16T09:48:45.166Z,77.80
2022-10-16T09:51:25.204Z,77.70
2022-10-16T09:54:03.038Z,77.40
2022-10-16T09:56:39.705Z,77.60
2022-10-16T09:59:14.255Z,77.60
2022-10-16T10:01:51.811Z,77.80
2022-10-16T10:04:24.074Z,78.00
2022-10-16T10:06:59.169Z,77.30
2022-10-16T10:09:32.398Z,77.20
2022-10-16T10:12:06.323Z,76.70
2022-10-16T10:14:39.547Z,76.40
2022-10-16T10:17:08.934Z,76.20
2022-10-16T10:19:40.086Z,75.90
2022-10-16T10:22:28.061Z,75.50
2022-10-16T10:25:04.650Z,75.90
2022-10-16T10:27:40.467Z,75.90
2022-10-16T10:30:13.358Z,75.50
2022-10-16T10:32:48.591Z,75.10
2022-10-16T10:35:28.386Z,75.20
2022-10-16T10:38:04.620Z,75.50
2022-10-16T10:40:34.755Z,74.50
2022-10-16T10:43:19.420Z,74.00
2022-10-16T10:45:48.685Z,73.80
2022-10-16T10:48:45.099Z,73.00
2022-10-16T10:52:00.164Z,73.60
2022-10-16T10:54:49.536Z,73.80
2022-10-16T10:57:27.264Z,74.40
2022-10-16T11:00:00.889Z,74.00
2022-10-16T11:03:00.752Z,73.90
2022-10-16T11:05:42.651Z,73.90
2022-10-16T11:08:24.504Z,73.70
2022-10-16T11:10:59.725Z,73.10
2022-10-16T11:13:38.632Z,73.80
2022-10-16T11:16:41.700Z,73.80
2022-10-16T11:19:30.495Z,72.60
2022-10-16T11:22:20.911Z,73.20
2022-10-16T11:25:14.599Z,73.50
2022-10-16T11:27:56.699Z,72.30
2022-10-16T11:30:27.218Z,71.90
2022-10-16T11:33:20.506Z,71.40
2022-10-16T11:36:01.655Z,71.80
2022-10-16T11:38:46.774Z,71.60
2022-10-16T11:41:38.772Z,70.80
2022-10-16T11:44:27.780Z,70.10
2022-10-16T11:47:46.403Z,70.30
2022-10-16T11:50:39.728Z,70.70
2022-10-16T11:53:51.388Z,70.50
2022-10-16T11:56:25.250Z,70.80
2022-10-16T11:59:01.543Z,70.40
2022-10-16T12:01:57.753Z,70.80
2022-10-16T12:04:46.241Z,70.70
2022-10-16T12:07:19.411Z,71.00
2022-10-16T12:09:46.697Z,70.60
2022-10-16T12:12:36.972Z,70.10
2022-10-16T12:15:29.770Z,70.70
2022-10-16T12:18:25.721Z,69.60
2022-10-16T12:21:08.743Z,69.10
2022-10-16T12:23:48.550Z,68.60
2022-10-16T12:26:28.846Z,68.40
2022-10-16T12:28:57.214Z,68.40
2022-10-16T12:31:25.261Z,68.40
2022-10-16T12:34:04.798Z,68.00
2022-10-16T12:36:36.266Z,66.70
2022-10-16T12:39:03.820Z,67.20
2022-10-16T12:41:40.803Z,68.50
2022-10-16T12:44:27.342Z,66.90
2022-10-16T12:46:54.685Z,67.20
2022-10-16T12:49:34.200Z,67.30
2022-10-16T12:52:01.488Z,67.10
2022-10-16T12:54:31.288Z,66.70
2022-10-16T12:57:26.827Z,67.30
2022-10-16T12:59:57.162Z,67.10
2022-10-16T13:02:56.051Z,67.20
2022-10-16T13:05:38.072Z,67.40
2022-10-16T13:08:26.979Z,67.50
2022-10-16T13:11:00.622Z,67.70
2022-10-16T13:13:49.201Z,67.60
2022-10-16T13:16:19.566Z,67.50
2022-10-16T13:19:04.763Z,66.90
2022-10-16T13:21:56.545Z,66.40
2022-10-16T13:25:02.605Z,65.70
2022-10-16T13:27:53.388Z,66.30
2022-10-16T13:30:30.831Z,66.50
2022-10-16T13:33:21.988Z,66.20
2022-10-16T13:35:52.273Z,66.10
2022-10-16T13:38:28.277Z,66.40
2022-10-16T13:41:07.047Z,66.50
2022-10-16T13:43:50.738Z,66.60
2022-10-16T13:46:22.897Z,66.30
2022-10-16T13:48:59.991Z,66.40
2022-10-16T13:51:27.990Z,66.60
2022-10-16T13:53:58.133Z,67.00
2022-10-16T13:56:33.422Z,66.70
2022-10-16T13:59:22.932Z,66.40
2022-10-16T14:01:52.730Z,66.60
2022-10-16T14:04:20.034Z,66.30
2022-10-16T14:06:53.075Z,66.40
2022-10-16T14:09:28.131Z,66.70
2022-10-16T14:12:11.091Z,66.60
2022-10-16T14:14:50.333Z,66.60
2022-10-16T14:17:19.674Z,66.90
2022-10-16T14:19:57.776Z,66.60
2022-10-16T14:22:42.736Z,67.00
2022-10-16T14:25:24.828Z,66.80
2022-10-16T14:28:24.331Z,66.80
2022-10-16T14:30:58.795Z,67.20
2022-10-16T14:33:37.661Z,67.30
2022-10-16T14:36:14.618Z,67.30
2022-10-16T14:38:58.382Z,67.20
2022-10-16T14:41:25.842Z,67.20
2022-10-16T14:43:57.694Z,67.30
2022-10-16T14:46:35.931Z,67.30
2022-10-16T14:49:11.968Z,66.70
2022-10-16T14:51:45.769Z,67.30
2022-10-16T14:54:16.517Z,67.50
2022-10-16T14:56:58.483Z,67.70
2022-10-16T14:59:45.140Z,67.50
2022-10-16T15:02:32.499Z,67.80
2022-10-16T15:05:12.358Z,67.90
2022-10-16T15:07:42.030Z,67.80
2022-10-16T15:10:09.593Z,68.00
2022-10-16T15:12:36.976Z,68.10
2022-10-16T15:15:26.875Z,68.30
2022-10-16T15:17:59.484Z,68.80
2022-10-16T15:20:28.912Z,68.70
2022-10-16T15:22:56.204Z,69.60
2022-10-16T15:25:48.859Z,69.20
2022-10-16T15:28:19.748Z,69.50
2022-10-16T15:30:49.825Z,68.90
2022-10-16T15:33:20.068Z,69.10
2022-10-16T15:35:49.138Z,69.40
2022-10-16T15:38:20.455Z,69.50
2022-10-16T15:40:49.342Z,69.70
2022-10-16T15:43:16.756Z,69.50
2022-10-16T15:45:46.492Z,70.00
2022-10-16T15:48:14.710Z,70.00
2022-10-16T15:53:13.896Z,70.10
2022-10-16T15:55:41.173Z,70.40
2022-10-16T15:58:10.701Z,70.50
2022-10-16T16:00:38.633Z,70.60
2022-10-16T16:03:05.995Z,71.00
2022-10-16T16:05:34.367Z,70.50
2022-10-16T16:08:01.643Z,70.50
2022-10-16T16:10:28.883Z,70.60
2022-10-16T16:12:56.217Z,70.50
2022-10-16T16:15:25.135Z,70.60
2022-10-16T16:17:52.404Z,70.60
2022-10-16T16:20:19.780Z,70.60
2022-10-16T16:22:49.330Z,70.70
2022-10-16T16:25:16.583Z,70.80
2022-10-16T16:27:43.974Z,70.80
2022-10-16T16:30:18.420Z,70.90
2022-10-16T16:32:47.720Z,70.80
2022-10-16T16:35:17.484Z,70.90
2022-10-16T16:37:47.666Z,71.00
2022-10-16T16:40:15.057Z,71.00
2022-10-16T16:42:42.301Z,71.00
2022-10-16T16:45:12.783Z,71.00
2022-10-16T16:47:40.033Z,71.00
2022-10-16T16:50:08.065Z,71.10
2022-10-16T16:52:38.026Z,71.10
2022-10-16T16:55:05.699Z,71.20
2022-10-16T16:57:33.019Z,71.10
2022-10-16T17:00:02.547Z,71.20
2022-10-16T17:02:29.810Z,71.20
2022-10-16T17:04:58.443Z,71.30
2022-10-16T17:07:27.956Z,71.30
2022-10-16T17:09:55.395Z,71.20
2022-10-16T17:12:22.713Z,71.40
2022-10-16T17:14:53.713Z,71.30
2022-10-16T17:17:21.102Z,71.40
2022-10-16T17:19:51.306Z,71.40
2022-10-16T17:22:19.943Z,71.50
2022-10-16T17:24:52.189Z,71.40
2022-10-16T17:27:19.773Z,71.70
2022-10-16T17:29:51.316Z,71.60
2022-10-16T17:32:20.677Z,71.70
2022-10-16T17:34:50.296Z,71.80
2022-10-16T17:37:20.265Z,71.40
2022-10-16T17:39:50.844Z,71.50
2022-10-16T17:42:18.174Z,71.60
2022-10-16T17:44:47.690Z,72.30
2022-10-16T17:47:15.047Z,71.60
2022-10-16T17:49:44.772Z,72.40
2022-10-16T17:52:12.272Z,71.80
2022-10-16T17:54:40.819Z,71.70
2022-10-16T17:57:10.377Z,71.80
2022-10-16T17:59:40.240Z,71.60
2022-10-16T18:02:09.228Z,71.60
2022-10-16T18:04:36.916Z,72.30
2022-10-16T18:07:06.798Z,71.50
2022-10-16T18:09:34.208Z,71.50
2022-10-16T18:12:01.643Z,71.50
2022-10-16T18:14:35.433Z,71.60
2022-10-16T18:17:02.685Z,71.50
2022-10-16T18:19:32.331Z,71.30
2022-10-16T18:21:59.732Z,71.30
2022-10-16T18:24:27.558Z,71.30
2022-10-16T18:26:57.514Z,71.40
2022-10-16T18:29:26.560Z,71.40
2022-10-16T18:31:54.628Z,71.20
2022-10-16T18:34:26.838Z,71.30
2022-10-16T18:36:55.217Z,71.30
2022-10-16T18:39:24.843Z,71.30
2022-10-16T18:41:55.188Z,71.30
2022-10-16T18:44:22.565Z,71.20
2022-10-16T18:46:51.117Z,71.20
2022-10-16T18:49:18.715Z,71.30
2022-10-16T18:51:48.649Z,71.30
2022-10-16T18:54:16.097Z,71.50
2022-10-16T18:56:43.374Z,71.60
2022-10-16T18:59:10.818Z,71.70
2022-10-16T19:01:40.723Z,71.60
2022-10-16T19:04:11.057Z,71.70
2022-10-16T19:06:42.825Z,71.80
2022-10-16T19:09:13.962Z,71.80
2022-10-16T19:11:42.183Z,71.60
2022-10-16T19:14:13.528Z,71.60
2022-10-16T19:16:43.047Z,71.50
2022-10-16T19:19:16.035Z,71.60
2022-10-16T19:21:43.697Z,71.60
2022-10-16T19:24:14.521Z,71.60
2022-10-16T19:26:42.623Z,71.50
2022-10-16T19:29:11.236Z,71.60
2022-10-16T19:31:38.530Z,71.40
2022-10-16T19:34:09.779Z,71.40
2022-10-16T19:36:39.082Z,71.40
2022-10-16T19:39:12.838Z,71.50
2022-10-16T19:41:40.690Z,71.30
2022-10-16T19:44:12.472Z,71.30
2022-10-16T19:46:39.707Z,71.30
2022-10-16T19:49:10.071Z,71.30
2022-10-16T19:51:40.672Z,71.40
2022-10-16T19:54:12.415Z,71.40
2022-10-16T19:56:42.650Z,71.30
2022-10-16T19:59:13.452Z,71.30
2022-10-16T20:01:43.621Z,71.40
2022-10-16T20:04:14.394Z,71.40
2022-10-16T20:06:41.778Z,71.50
2022-10-16T20:09:09.396Z,71.50
2022-10-16T20:11:37.285Z,71.60
2022-10-16T20:14:08.077Z,71.80
2022-10-16T20:16:35.623Z,71.90
2022-10-16T20:19:05.844Z,71.80
2022-10-16T20:21:35.012Z,71.90
2022-10-16T20:24:05.109Z,72.00
2022-10-16T20:26:33.332Z,71.80
2022-10-16T20:29:00.726Z,71.80
2022-10-16T20:31:30.463Z,71.70
2022-10-16T20:34:01.957Z,71.80
2022-10-16T20:36:30.719Z,71.70
2022-10-16T20:38:57.993Z,72.60
2022-10-16T20:41:29.803Z,71.60
2022-10-16T20:43:57.100Z,71.50
2022-10-16T20:46:28.907Z,71.50
2022-10-16T20:49:05.938Z,71.50
2022-10-16T20:51:49.852Z,71.60
2022-10-16T20:54:17.324Z,71.50
2022-10-16T20:56:46.939Z,71.30
2022-10-16T20:59:14.454Z,71.20
2022-10-16T21:01:41.892Z,71.10
2022-10-16T21:04:09.944Z,71.00
2022-10-16T21:06:39.171Z,70.80
2022-10-16T21:09:07.876Z,71.00
2022-10-16T21:11:37.264Z,71.10
2022-10-16T21:14:06.527Z,71.00
2022-10-16T21:16:36.809Z,70.90
2022-10-16T21:19:04.987Z,70.90
2022-10-16T21:21:39.284Z,71.00
2022-10-16T21:24:10.917Z,71.10
2022-10-16T21:26:43.460Z,71.10
2022-10-16T21:29:11.705Z,71.20
2022-10-16T21:31:39.413Z,71.40
2022-10-16T21:34:09.183Z,71.40
2022-10-16T21:36:40.920Z,71.50
2022-10-16T21:39:11.458Z,71.50
2022-10-16T21:41:39.387Z,71.60
2022-10-16T21:44:07.022Z,71.50
2022-10-16T21:46:37.045Z,71.50
2022-10-16T21:49:10.122Z,71.70
2022-10-16T21:51:40.355Z,71.60
2022-10-16T21:54:10.450Z,71.60
2022-10-16T21:56:38.666Z,71.30
2022-10-16T21:59:06.608Z,71.30
2022-10-16T22:01:34.151Z,71.30
2022-10-16T22:04:01.492Z,71.30
2022-10-16T22:06:31.533Z,71.30
2022-10-16T22:09:04.809Z,71.10
2022-10-16T22:11:37.177Z,71.10
2022-10-16T22:14:14.032Z,70.90
2022-10-16T22:16:42.258Z,70.80
2022-10-16T22:19:11.073Z,70.80
2022-10-16T22:21:42.294Z,70.90
2022-10-16T22:24:10.007Z,70.90
2022-10-16T22:26:38.697Z,70.90
2022-10-16T22:29:06.727Z,70.90
2022-10-16T22:31:34.972Z,70.80
2022-10-16T22:34:07.936Z,70.70
2022-10-16T22:36:37.703Z,70.50
2022-10-16T22:39:05.612Z,70.80
2022-10-16T22:41:32.949Z,70.90
2022-10-16T22:44:02.666Z,71.20
2022-10-16T22:46:31.331Z,71.00
2022-10-16T22:49:01.094Z,70.80
2022-10-16T22:51:35.680Z,70.70
2022-10-16T22:54:02.967Z,70.70
2022-10-16T22:56:32.595Z,70.50
2022-10-16T22:58:59.833Z,70.80
2022-10-16T23:01:36.916Z,70.70
2022-10-16T23:04:07.187Z,70.80
2022-10-16T23:06:35.386Z,70.60
2022-10-16T23:09:04.980Z,70.40
2022-10-16T23:11:34.745Z,70.60
2022-10-16T23:14:02.063Z,70.50
2022-10-16T23:16:32.265Z,70.50
2022-10-16T23:18:59.753Z,70.60
2022-10-16T23:21:27.365Z,70.50
2022-10-16T23:23:55.313Z,70.50
2022-10-16T23:26:25.435Z,70.50
2022-10-16T23:28:55.196Z,70.30
2022-10-16T23:31:22.583Z,70.50
2022-10-16T23:33:50.212Z,70.50
2022-10-16T23:36:19.827Z,70.40
2022-10-16T23:38:48.483Z,70.60
2022-10-16T23:41:16.802Z,70.40
2022-10-16T23:43:44.149Z,70.30
2022-10-16T23:46:12.758Z,70.10
2022-10-16T23:48:40.589Z,70.00
2022-10-16T23:51:11.245Z,70.10
2022-10-16T23:53:40.909Z,70.70
2022-10-16T23:56:08.718Z,70.90
2022-10-16T23:58:36.717Z,71.40
